Time;durP1;ratioP1;P1;durP2;ratioP2;P2;SDS_P1;SDS_P2;PMS_P1;PMS_P2;Temp;Humidity;BMP_temperature;BMP_pressure;BME280_temperature;BME280_humidity;BME280_pressure;Samples;Min_cycle;Max_cycle;Signal;HPM_P1;HPM_P2
2022/01/14 00:00:38;;;;;;;;;;;5.40;52.80;;;;;;5076067;28;20344;-72
2022/01/14 00:03:04;;;;;;;;;;;5.10;54.00;;;;;;5075965;28;19919;-70
2022/01/14 00:05:29;;;;;;;;;;;5.00;54.20;;;;;;5075892;28;20036;-69
2022/01/14 00:07:55;;;;;;;;;;;5.20;53.50;;;;;;5075858;28;20029;-67
2022/01/14 00:10:21;;;;;;;;;;;5.20;53.90;;;;;;5075849;28;19924;-66
2022/01/14 00:12:53;;;;;;;;;;;5.10;54.20;;;;;;5075648;28;19917;-68
2022/01/14 00:15:26;;;;;;;;;;;5.10;54.20;;;;;;5075784;28;19908;-67
2022/01/14 00:17:52;;;;;;;;;;;5.10;54.20;;;;;;5075704;28;19908;-68
2022/01/14 00:20:19;;;;;;;;;;;5.00;54.50;;;;;;5075924;28;19908;-68
2022/01/14 00:22:44;;;;;;;;;;;5.00;54.50;;;;;;5075800;28;19916;-67
2022/01/14 00:33:06;;;;;;;;;;;5.30;53.50;;;;;;5074642;28;19979;-69
2022/01/14 00:35:33;;;;;;;;;;;5.40;53.50;;;;;;5075369;28;19948;-69
2022/01/14 00:37:58;;;;;;;;;;;5.10;54.20;;;;;;5075469;28;19908;-68
2022/01/14 00:40:24;;;;;;;;;;;5.20;54.50;;;;;;5074202;28;19915;-70
2022/01/14 00:42:50;;;;;;;;;;;5.20;54.40;;;;;;5075243;28;19909;-71
2022/01/14 00:45:16;;;;;;;;;;;5.20;54.60;;;;;;5075222;28;19909;-71
2022/01/14 00:47:41;;;;;;;;;;;5.10;54.90;;;;;;5075309;28;19983;-70
2022/01/14 00:50:08;;;;;;;;;;;4.90;55.70;;;;;;5075064;28;20324;-71
2022/01/14 00:52:38;;;;;;;;;;;4.80;56.00;;;;;;5075022;28;20348;-72
2022/01/14 00:55:04;;;;;;;;;;;4.70;56.30;;;;;;5074779;28;19908;-72
2022/01/14 01:00:14;;;;;;;;;;;4.80;56.50;;;;;;5074971;28;19915;-73
2022/01/14 01:02:40;;;;;;;;;;;4.80;56.40;;;;;;5074856;28;19932;-70
2022/01/14 01:05:06;;;;;;;;;;;4.70;56.70;;;;;;5074690;28;19975;-69
2022/01/14 01:07:31;;;;;;;;;;;4.80;56.70;;;;;;5074937;28;19919;-70
2022/01/14 01:09:57;;;;;;;;;;;4.80;56.60;;;;;;5073789;28;19916;-71
2022/01/14 01:12:46;;;;;;;;;;;4.80;56.60;;;;;;5073205;28;20402;-70
2022/01/14 01:15:15;;;;;;;;;;;4.90;55.80;;;;;;5074547;28;19966;-70
2022/01/14 01:17:40;;;;;;;;;;;5.00;55.70;;;;;;5073422;28;19943;-69
2022/01/14 01:20:15;;;;;;;;;;;4.90;56.00;;;;;;5074693;28;19948;-69
2022/01/14 01:22:41;;;;;;;;;;;4.90;56.50;;;;;;5074416;28;20384;-70
2022/01/14 01:25:09;;;;;;;;;;;4.80;57.10;;;;;;5074391;28;19960;-70
2022/01/14 01:27:39;;;;;;;;;;;4.80;57.10;;;;;;5074416;28;20372;-69
2022/01/14 01:30:15;;;;;;;;;;;4.80;56.50;;;;;;5074494;28;19919;-70
2022/01/14 01:32:45;;;;;;;;;;;4.90;56.90;;;;;;5074024;28;19943;-68
2022/01/14 01:35:11;;;;;;;;;;;4.80;57.20;;;;;;5074610;28;19954;-70
2022/01/14 01:37:36;;;;;;;;;;;4.70;57.20;;;;;;5074232;28;19913;-68
2022/01/14 01:40:03;;;;;;;;;;;4.70;57.20;;;;;;5074216;28;20273;-69
2022/01/14 01:42:30;;;;;;;;;;;4.70;57.30;;;;;;5074217;28;19915;-69
2022/01/14 01:44:58;;;;;;;;;;;4.70;57.30;;;;;;5073995;28;19931;-69
2022/01/14 01:47:24;;;;;;;;;;;4.70;57.40;;;;;;5074397;28;19916;-69
2022/01/14 01:49:49;;;;;;;;;;;4.70;58.00;;;;;;5074015;28;19909;-69
2022/01/14 01:52:15;;;;;;;;;;;4.70;57.70;;;;;;5074213;28;20418;-68
2022/01/14 01:54:41;;;;;;;;;;;4.50;58.70;;;;;;5073972;28;20103;-68
2022/01/14 01:57:06;;;;;;;;;;;4.40;58.80;;;;;;5073765;28;19916;-69
2022/01/14 01:59:32;;;;;;;;;;;4.40;58.90;;;;;;5074157;28;19915;-71
2022/01/14 02:01:59;;;;;;;;;;;4.40;58.50;;;;;;5072682;28;19915;-71
2022/01/14 02:04:25;;;;;;;;;;;4.50;58.70;;;;;;5073841;28;19916;-71
2022/01/14 02:06:51;;;;;;;;;;;4.50;58.30;;;;;;5073836;28;20301;-69
2022/01/14 02:09:17;;;;;;;;;;;4.50;58.20;;;;;;5073667;28;19998;-70
2022/01/14 02:11:42;;;;;;;;;;;4.60;57.90;;;;;;5073729;28;20001;-71
2022/01/14 02:14:25;;;;;;;;;;;4.70;57.40;;;;;;5073514;28;20281;-70
2022/01/14 02:19:29;;;;;;;;;;;4.90;56.80;;;;;;5073562;28;19908;-70
2022/01/14 02:27:08;;;;;;;;;;;4.80;56.80;;;;;;5073378;28;19918;-70
2022/01/14 02:29:34;;;;;;;;;;;4.70;57.30;;;;;;5073245;28;20368;-71
2022/01/14 02:31:59;;;;;;;;;;;4.60;57.90;;;;;;5071805;28;19920;-71
2022/01/14 02:34:25;;;;;;;;;;;4.50;58.50;;;;;;5073193;28;19913;-71
2022/01/14 02:36:51;;;;;;;;;;;4.40;58.40;;;;;;5073218;28;19912;-68
2022/01/14 02:39:18;;;;;;;;;;;4.50;58.10;;;;;;5073552;28;19995;-70
2022/01/14 02:41:44;;;;;;;;;;;4.50;58.20;;;;;;5073121;28;20328;-70
2022/01/14 02:44:11;;;;;;;;;;;4.50;57.80;;;;;;5073387;28;20003;-72
2022/01/14 02:46:41;;;;;;;;;;;4.60;57.50;;;;;;5073374;28;19943;-70
2022/01/14 02:49:07;;;;;;;;;;;4.60;57.90;;;;;;5073344;28;19918;-70
2022/01/14 02:51:33;;;;;;;;;;;4.50;58.40;;;;;;5073323;28;19991;-72
2022/01/14 02:54:23;;;;;;;;;;;4.40;58.90;;;;;;5073010;28;19917;-71
2022/01/14 02:56:46;;;;;;;;;;;4.40;58.80;;;;;;5072428;28;19908;-70
2022/01/14 02:59:12;;;;;;;;;;;4.40;58.90;;;;;;5073233;28;20367;-69
2022/01/14 03:01:38;;;;;;;;;;;4.30;59.00;;;;;;5073771;28;20376;-71
2022/01/14 03:04:04;;;;;;;;;;;4.30;59.00;;;;;;5073923;28;19970;-71
2022/01/14 03:06:30;;;;;;;;;;;4.30;58.50;;;;;;5073207;28;20421;-72
2022/01/14 03:08:57;;;;;;;;;;;4.50;58.20;;;;;;5073220;28;19954;-68
2022/01/14 03:11:29;;;;;;;;;;;4.50;57.40;;;;;;5073299;28;19954;-71
2022/01/14 03:13:55;;;;;;;;;;;4.60;57.20;;;;;;5071561;28;19917;-70
2022/01/14 03:16:23;;;;;;;;;;;4.70;57.00;;;;;;5073146;28;19912;-68
2022/01/14 03:18:51;;;;;;;;;;;4.70;56.40;;;;;;5072903;28;19932;-71
2022/01/14 03:21:26;;;;;;;;;;;4.90;56.20;;;;;;5073048;28;19940;-68
2022/01/14 03:24:02;;;;;;;;;;;4.80;56.80;;;;;;5072973;28;20288;-70
2022/01/14 03:26:28;;;;;;;;;;;4.70;56.90;;;;;;5072819;28;20434;-69
2022/01/14 03:28:54;;;;;;;;;;;4.90;56.80;;;;;;5072965;28;19916;-70
2022/01/14 03:31:20;;;;;;;;;;;4.90;56.20;;;;;;5072702;28;19917;-68
2022/01/14 03:33:46;;;;;;;;;;;4.90;56.70;;;;;;5072547;28;19921;-68
2022/01/14 03:36:11;;;;;;;;;;;4.90;56.20;;;;;;5072737;28;19916;-68
2022/01/14 03:38:37;;;;;;;;;;;4.80;56.20;;;;;;5072970;28;19909;-68
2022/01/14 03:41:03;;;;;;;;;;;4.90;56.00;;;;;;5072698;28;19913;-69
2022/01/14 03:43:29;;;;;;;;;;;4.80;55.70;;;;;;5072950;28;20387;-68
2022/01/14 03:45:55;;;;;;;;;;;4.70;56.40;;;;;;5072465;28;19915;-70
2022/01/14 03:48:21;;;;;;;;;;;4.80;56.20;;;;;;5072058;28;19908;-68
2022/01/14 03:50:47;;;;;;;;;;;4.70;56.40;;;;;;5083241;28;20486;-67
2022/01/14 03:53:12;;;;;;;;;;;4.70;56.70;;;;;;5072301;28;20007;-68
2022/01/14 03:55:39;;;;;;;;;;;4.60;56.80;;;;;;5072487;28;19909;-68
2022/01/14 03:58:05;;;;;;;;;;;4.50;57.70;;;;;;5072470;28;19909;-67
2022/01/14 04:00:30;;;;;;;;;;;4.40;58.10;;;;;;5072739;28;19909;-68
2022/01/14 04:02:56;;;;;;;;;;;4.30;58.00;;;;;;5072494;28;19909;-69
2022/01/14 04:05:21;;;;;;;;;;;4.30;58.00;;;;;;5072401;28;19971;-70
2022/01/14 04:07:47;;;;;;;;;;;4.40;58.10;;;;;;5073013;28;20038;-69
2022/01/14 04:10:13;;;;;;;;;;;4.40;57.90;;;;;;5075934;28;20000;-70
2022/01/14 04:17:56;;;;;;;;;;;4.70;57.20;;;;;;5076148;28;19915;-70
2022/01/14 04:20:21;;;;;;;;;;;4.70;57.00;;;;;;5075881;28;20007;-69
2022/01/14 04:22:48;;;;;;;;;;;4.60;57.90;;;;;;5075492;28;19913;-69
2022/01/14 04:25:14;;;;;;;;;;;4.60;58.20;;;;;;5075834;28;19915;-71
2022/01/14 04:27:40;;;;;;;;;;;4.50;58.60;;;;;;5075673;28;19909;-67
2022/01/14 04:30:06;;;;;;;;;;;4.40;58.80;;;;;;5075675;28;19908;-68
2022/01/14 04:32:31;;;;;;;;;;;4.50;58.90;;;;;;5075407;28;19924;-68
2022/01/14 04:34:57;;;;;;;;;;;4.60;58.60;;;;;;5075361;28;20368;-68
2022/01/14 04:37:22;;;;;;;;;;;4.80;58.30;;;;;;5075409;28;19931;-68
2022/01/14 04:39:48;;;;;;;;;;;4.70;57.70;;;;;;5075187;28;19909;-71
2022/01/14 04:42:13;;;;;;;;;;;4.80;58.00;;;;;;5075380;28;19999;-72
2022/01/14 04:44:39;;;;;;;;;;;5.00;56.90;;;;;;5075517;28;19908;-70
2022/01/14 04:47:29;;;;;;;;;;;5.00;56.30;;;;;;5075267;28;20360;-70
2022/01/14 04:49:54;;;;;;;;;;;4.90;56.30;;;;;;5075218;28;19962;-70
2022/01/14 04:52:20;;;;;;;;;;;5.20;54.60;;;;;;5075433;28;20280;-71
2022/01/14 04:54:46;;;;;;;;;;;5.20;54.30;;;;;;5075252;28;19915;-68
2022/01/14 04:57:11;;;;;;;;;;;5.00;55.10;;;;;;5074912;28;19912;-71
2022/01/14 04:59:37;;;;;;;;;;;5.10;55.90;;;;;;5075414;28;20391;-72
2022/01/14 05:02:03;;;;;;;;;;;5.20;55.70;;;;;;5075198;28;20016;-71
2022/01/14 05:04:29;;;;;;;;;;;5.00;55.90;;;;;;5074787;28;19916;-72
2022/01/14 05:07:00;;;;;;;;;;;4.90;57.60;;;;;;5074889;28;19908;-72
2022/01/14 05:09:33;;;;;;;;;;;4.80;58.00;;;;;;5075030;28;19992;-70
2022/01/14 05:12:06;;;;;;;;;;;4.80;57.70;;;;;;5075002;28;20007;-71
2022/01/14 05:14:31;;;;;;;;;;;4.80;56.70;;;;;;5074920;28;19989;-69
2022/01/14 05:16:57;;;;;;;;;;;4.60;57.90;;;;;;5074499;28;19908;-72
2022/01/14 05:19:22;;;;;;;;;;;4.50;58.50;;;;;;5074351;28;19908;-71
2022/01/14 05:21:48;;;;;;;;;;;4.20;59.00;;;;;;5074934;28;19908;-72
2022/01/14 05:24:14;;;;;;;;;;;4.20;59.70;;;;;;5074524;28;19999;-71
2022/01/14 05:26:39;;;;;;;;;;;4.40;60.10;;;;;;5074467;28;19962;-69
2022/01/14 05:29:05;;;;;;;;;;;4.20;59.90;;;;;;5073394;28;19909;-69
2022/01/14 05:31:51;;;;;;;;;;;4.20;59.50;;;;;;5074357;28;20049;-71
2022/01/14 05:34:17;;;;;;;;;;;4.20;60.60;;;;;;5074408;28;19916;-73
2022/01/14 05:36:42;;;;;;;;;;;4.20;61.20;;;;;;5074253;28;19912;-70
2022/01/14 05:39:09;;;;;;;;;;;4.20;60.60;;;;;;5074390;28;19954;-69
2022/01/14 05:41:34;;;;;;;;;;;4.40;60.60;;;;;;5074285;28;20395;-71
2022/01/14 05:44:01;;;;;;;;;;;4.70;58.20;;;;;;5073718;28;19939;-69
2022/01/14 05:46:27;;;;;;;;;;;4.90;57.50;;;;;;5074289;28;20303;-69
2022/01/14 05:48:53;;;;;;;;;;;4.80;57.10;;;;;;5074078;28;19908;-70
2022/01/14 05:51:18;;;;;;;;;;;4.80;57.10;;;;;;5073958;28;19909;-72
2022/01/14 05:53:44;;;;;;;;;;;4.60;57.50;;;;;;5073879;28;19917;-69
2022/01/14 05:56:09;;;;;;;;;;;4.50;58.50;;;;;;5073652;28;20015;-71
2022/01/14 05:58:35;;;;;;;;;;;4.30;59.30;;;;;;5073811;28;19908;-71
2022/01/14 06:01:01;;;;;;;;;;;4.20;59.40;;;;;;5073731;28;20007;-68
2022/01/14 06:03:26;;;;;;;;;;;4.10;59.90;;;;;;5073694;28;20398;-69
2022/01/14 06:05:52;;;;;;;;;;;4.00;60.00;;;;;;5073751;28;19912;-72
2022/01/14 06:08:17;;;;;;;;;;;4.00;60.10;;;;;;5073547;28;19927;-71
2022/01/14 06:10:43;;;;;;;;;;;3.90;60.90;;;;;;5073502;28;19909;-72
2022/01/14 06:13:08;;;;;;;;;;;3.90;60.20;;;;;;5073713;28;19920;-70
2022/01/14 06:15:34;;;;;;;;;;;3.90;59.70;;;;;;5073657;28;19908;-71
2022/01/14 06:18:01;;;;;;;;;;;4.00;59.30;;;;;;5073452;28;19909;-72
2022/01/14 06:20:27;;;;;;;;;;;4.10;59.40;;;;;;5073494;28;19915;-69
2022/01/14 06:22:53;;;;;;;;;;;4.20;58.40;;;;;;5073384;28;20272;-69
2022/01/14 06:25:18;;;;;;;;;;;4.40;58.00;;;;;;5073321;28;19931;-70
2022/01/14 06:27:44;;;;;;;;;;;4.60;56.20;;;;;;5073289;28;20257;-71
2022/01/14 06:30:09;;;;;;;;;;;4.70;56.30;;;;;;5073008;28;20354;-69
2022/01/14 06:32:41;;;;;;;;;;;4.50;57.50;;;;;;5072861;28;19927;-70
2022/01/14 06:35:11;;;;;;;;;;;4.40;58.00;;;;;;5073256;28;19909;-69
2022/01/14 06:37:37;;;;;;;;;;;4.40;58.20;;;;;;5073153;28;19912;-68
2022/01/14 06:40:04;;;;;;;;;;;4.40;57.90;;;;;;5072997;28;20253;-71
2022/01/14 06:42:29;;;;;;;;;;;4.50;56.90;;;;;;5073247;28;19961;-70
2022/01/14 06:44:55;;;;;;;;;;;4.40;57.90;;;;;;5072944;28;19912;-70
2022/01/14 06:47:21;;;;;;;;;;;4.20;58.40;;;;;;5073198;28;20360;-70
2022/01/14 06:49:47;;;;;;;;;;;4.20;58.60;;;;;;5071780;28;19944;-71
2022/01/14 06:52:12;;;;;;;;;;;4.10;58.70;;;;;;5072891;28;19955;-71
2022/01/14 06:54:38;;;;;;;;;;;4.10;59.70;;;;;;5073098;28;19908;-67
2022/01/14 06:57:04;;;;;;;;;;;4.00;59.40;;;;;;5072830;28;19909;-69
2022/01/14 06:59:29;;;;;;;;;;;4.10;59.20;;;;;;5072906;28;20375;-68
2022/01/14 07:01:55;;;;;;;;;;;4.10;59.60;;;;;;5072870;28;20253;-67
2022/01/14 07:04:20;;;;;;;;;;;4.10;58.60;;;;;;5072631;28;20065;-68
2022/01/14 07:06:46;;;;;;;;;;;4.30;59.00;;;;;;5073016;28;19908;-67
2022/01/14 07:09:12;;;;;;;;;;;4.30;58.50;;;;;;5072937;28;19935;-72
2022/01/14 07:11:37;;;;;;;;;;;4.40;58.40;;;;;;5072866;28;19981;-70
2022/01/14 07:14:04;;;;;;;;;;;4.50;58.00;;;;;;5072805;28;19999;-71
2022/01/14 07:16:29;;;;;;;;;;;4.50;57.70;;;;;;5072832;28;20287;-70
2022/01/14 07:18:55;;;;;;;;;;;4.50;57.40;;;;;;5073105;28;20000;-70
2022/01/14 07:21:20;;;;;;;;;;;4.50;57.80;;;;;;5072760;28;20376;-68
2022/01/14 07:23:46;;;;;;;;;;;4.70;57.50;;;;;;5072677;28;19914;-64
2022/01/14 07:26:11;;;;;;;;;;;4.90;58.40;;;;;;5072848;28;19920;-64
2022/01/14 07:28:37;;;;;;;;;;;5.10;59.60;;;;;;5073212;28;19915;-66
2022/01/14 07:31:03;;;;;;;;;;;5.10;58.50;;;;;;5072783;28;20012;-64
2022/01/14 07:33:28;;;;;;;;;;;5.10;58.30;;;;;;5072741;28;19966;-63
2022/01/14 07:35:54;;;;;;;;;;;5.30;59.40;;;;;;5072868;28;20257;-64
2022/01/14 07:38:19;;;;;;;;;;;5.80;60.00;;;;;;5073106;28;19908;-63
2022/01/14 07:40:45;;;;;;;;;;;6.50;62.60;;;;;;5072786;28;19919;-64
2022/01/14 07:43:11;;;;;;;;;;;6.70;57.00;;;;;;5075433;28;19913;-63
2022/01/14 07:45:37;;;;;;;;;;;7.00;54.40;;;;;;5076491;28;19962;-63
2022/01/14 07:48:02;;;;;;;;;;;6.90;53.50;;;;;;5076356;28;19912;-62
2022/01/14 07:50:28;;;;;;;;;;;6.90;54.00;;;;;;5076293;28;19909;-64
2022/01/14 07:52:53;;;;;;;;;;;7.20;55.90;;;;;;5075948;28;19917;-64
2022/01/14 07:55:19;;;;;;;;;;;7.40;53.50;;;;;;5076247;28;19943;-63
2022/01/14 07:57:45;;;;;;;;;;;7.60;53.20;;;;;;5086114;28;20425;-65
2022/01/14 08:00:10;;;;;;;;;;;8.10;55.10;;;;;;5095836;28;19932;-63
2022/01/14 08:02:37;;;;;;;;;;;8.50;51.90;;;;;;5089656;28;20386;-69
2022/01/14 08:05:03;;;;;;;;;;;8.60;49.70;;;;;;5078617;28;19913;-65
2022/01/14 08:07:30;;;;;;;;;;;8.30;49.40;;;;;;5077555;28;19908;-70
2022/01/14 08:09:55;;;;;;;;;;;8.00;50.00;;;;;;5075528;28;20334;-69
2022/01/14 08:12:21;;;;;;;;;;;7.70;51.70;;;;;;5075535;28;19954;-67
2022/01/14 08:14:46;;;;;;;;;;;7.40;53.10;;;;;;5075634;28;19987;-72
2022/01/14 08:17:15;;;;;;;;;;;7.30;53.40;;;;;;5078362;28;20293;-74
2022/01/14 08:19:40;;;;;;;;;;;7.20;54.10;;;;;;5075598;28;19995;-69
2022/01/14 08:22:06;;;;;;;;;;;7.20;54.10;;;;;;5075765;28;19985;-70
2022/01/14 08:24:32;;;;;;;;;;;7.20;54.00;;;;;;5078186;28;19919;-72
2022/01/14 08:26:58;;;;;;;;;;;7.30;54.30;;;;;;5075387;28;19978;-70
2022/01/14 08:29:24;;;;;;;;;;;7.30;53.90;;;;;;5075507;28;19909;-72
2022/01/14 08:31:49;;;;;;;;;;;7.30;54.20;;;;;;5075180;28;19928;-71
2022/01/14 08:34:15;;;;;;;;;;;7.30;53.90;;;;;;5075026;28;19956;-72
2022/01/14 08:36:41;;;;;;;;;;;7.50;54.20;;;;;;5081151;28;20416;-70
2022/01/14 08:39:06;;;;;;;;;;;7.60;53.60;;;;;;5075217;28;20305;-70
2022/01/14 08:41:32;;;;;;;;;;;7.70;53.00;;;;;;5078300;28;19948;-66
2022/01/14 08:43:58;;;;;;;;;;;7.80;53.00;;;;;;5075670;28;19908;-66
2022/01/14 08:46:23;;;;;;;;;;;7.80;53.10;;;;;;5075845;28;20267;-70
2022/01/14 08:48:49;;;;;;;;;;;7.70;54.00;;;;;;5075484;28;19913;-75
2022/01/14 08:51:14;;;;;;;;;;;7.80;53.80;;;;;;5075460;28;19953;-74
2022/01/14 08:53:40;;;;;;;;;;;7.90;53.30;;;;;;5074633;28;19959;-72
2022/01/14 08:56:05;;;;;;;;;;;8.00;53.10;;;;;;5075690;28;19908;-69
2022/01/14 08:58:32;;;;;;;;;;;8.10;52.50;;;;;;5075606;28;20365;-72
2022/01/14 09:00:57;;;;;;;;;;;8.30;52.00;;;;;;5075396;28;19908;-72
2022/01/14 09:03:24;;;;;;;;;;;8.30;52.30;;;;;;5074250;28;19915;-74
2022/01/14 09:05:50;;;;;;;;;;;8.20;52.20;;;;;;5075587;28;19908;-73
2022/01/14 09:08:15;;;;;;;;;;;8.30;51.90;;;;;;5075440;28;19909;-69
2022/01/14 09:10:41;;;;;;;;;;;8.40;52.00;;;;;;5075108;28;19912;-71
2022/01/14 09:13:06;;;;;;;;;;;8.30;51.10;;;;;;5075261;28;19948;-70
2022/01/14 09:15:32;;;;;;;;;;;8.30;51.70;;;;;;5075499;28;20003;-66
2022/01/14 09:17:58;;;;;;;;;;;8.30;51.90;;;;;;5075863;28;20279;-62
2022/01/14 09:20:23;;;;;;;;;;;8.30;52.00;;;;;;5076815;28;19908;-66
2022/01/14 09:22:51;;;;;;;;;;;8.20;52.60;;;;;;5094360;28;19908;-66
2022/01/14 09:25:20;;;;;;;;;;;8.30;52.50;;;;;;5092553;28;19919;-63
2022/01/14 09:27:48;;;;;;;;;;;8.30;52.20;;;;;;5087748;28;19949;-66
2022/01/14 09:30:14;;;;;;;;;;;8.50;52.20;;;;;;5091810;28;19916;-66
2022/01/14 09:32:40;;;;;;;;;;;8.60;51.40;;;;;;5086472;28;19921;-66
2022/01/14 09:35:07;;;;;;;;;;;8.80;51.40;;;;;;5074981;28;19957;-62
2022/01/14 09:37:33;;;;;;;;;;;8.80;51.30;;;;;;5074873;28;20050;-72
2022/01/14 09:39:59;;;;;;;;;;;8.90;51.30;;;;;;5075088;28;20364;-66
2022/01/14 09:42:25;;;;;;;;;;;8.90;50.90;;;;;;5075113;28;20015;-69
2022/01/14 09:44:50;;;;;;;;;;;9.00;50.90;;;;;;5075116;28;19943;-72
2022/01/14 09:47:16;;;;;;;;;;;9.10;50.60;;;;;;5074682;28;19915;-69
2022/01/14 09:49:43;;;;;;;;;;;9.10;51.00;;;;;;5074783;28;19912;-73
2022/01/14 09:52:08;;;;;;;;;;;9.20;50.30;;;;;;5074312;28;19947;-73
2022/01/14 09:54:34;;;;;;;;;;;9.40;50.00;;;;;;5080723;28;19916;-71
2022/01/14 09:56:59;;;;;;;;;;;9.50;50.20;;;;;;5084074;28;19909;-71
2022/01/14 09:59:25;;;;;;;;;;;9.60;50.00;;;;;;5076979;28;19949;-72
2022/01/14 10:01:51;;;;;;;;;;;9.70;49.70;;;;;;5074300;28;20041;-67
2022/01/14 10:04:18;;;;;;;;;;;9.90;49.80;;;;;;5073720;28;20357;-69
2022/01/14 10:06:43;;;;;;;;;;;9.70;47.20;;;;;;5073933;28;19971;-63
2022/01/14 10:09:09;;;;;;;;;;;9.80;47.90;;;;;;5074015;28;20364;-62
2022/01/14 10:11:35;;;;;;;;;;;10.00;48.20;;;;;;5073864;28;19908;-68
2022/01/14 10:14:05;;;;;;;;;;;10.20;47.60;;;;;;5073672;28;19923;-68
2022/01/14 10:16:31;;;;;;;;;;;10.30;47.60;;;;;;5073916;28;19954;-69
2022/01/14 10:18:57;;;;;;;;;;;10.50;47.10;;;;;;5073684;28;19908;-69
2022/01/14 10:21:29;;;;;;;;;;;10.50;47.00;;;;;;5072512;28;19914;-68
2022/01/14 10:23:56;;;;;;;;;;;10.50;47.50;;;;;;5073415;28;20356;-68
2022/01/14 10:26:21;;;;;;;;;;;10.60;46.70;;;;;;5074030;28;19914;-69
2022/01/14 10:29:07;;;;;;;;;;;10.30;46.40;;;;;;5073662;28;20368;-70
2022/01/14 10:31:37;;;;;;;;;;;10.40;46.70;;;;;;5073096;28;19924;-67
2022/01/14 10:34:14;;;;;;;;;;;10.40;47.10;;;;;;5073167;28;20222;-69
2022/01/14 10:36:42;;;;;;;;;;;10.30;46.90;;;;;;5074030;28;19920;-76
2022/01/14 10:39:18;;;;;;;;;;;10.60;48.70;;;;;;5074140;28;20248;-72
2022/01/14 10:41:43;;;;;;;;;;;11.00;50.60;;;;;;5076775;28;19908;-71
2022/01/14 10:44:22;;;;;;;;;;;11.40;48.20;;;;;;5074930;28;20265;-71
2022/01/14 10:46:48;;;;;;;;;;;11.60;47.20;;;;;;5074640;28;19908;-73
2022/01/14 10:49:30;;;;;;;;;;;11.70;45.90;;;;;;5073846;28;19958;-66
2022/01/14 10:52:11;;;;;;;;;;;11.80;45.20;;;;;;5084173;28;19916;-70
2022/01/14 10:54:47;;;;;;;;;;;11.90;44.70;;;;;;5084219;28;19955;-72
2022/01/14 10:57:16;;;;;;;;;;;11.80;44.50;;;;;;5074479;28;19913;-66
2022/01/14 10:59:42;;;;;;;;;;;11.90;44.70;;;;;;5073396;28;19969;-68
2022/01/14 11:02:27;;;;;;;;;;;11.90;44.80;;;;;;5073379;28;19913;-67
2022/01/14 11:05:06;;;;;;;;;;;11.80;44.40;;;;;;5073043;28;20407;-68
2022/01/14 11:07:32;;;;;;;;;;;11.70;44.90;;;;;;5072180;28;19912;-67
2022/01/14 11:10:01;;;;;;;;;;;11.70;44.70;;;;;;5072746;28;19908;-68
2022/01/14 11:12:29;;;;;;;;;;;11.70;44.70;;;;;;5072516;28;20383;-67
2022/01/14 11:14:55;;;;;;;;;;;11.80;44.70;;;;;;5075272;28;19912;-70
2022/01/14 11:17:20;;;;;;;;;;;11.90;44.50;;;;;;5076976;28;20326;-67
2022/01/14 11:19:46;;;;;;;;;;;12.00;44.80;;;;;;5078077;28;20282;-68
2022/01/14 11:24:56;;;;;;;;;;;12.00;44.60;;;;;;5076647;28;20268;-68
2022/01/14 11:27:23;;;;;;;;;;;12.10;44.40;;;;;;5076571;28;19912;-67
2022/01/14 11:29:51;;;;;;;;;;;12.20;44.40;;;;;;5076612;28;19945;-69
2022/01/14 11:32:17;;;;;;;;;;;12.30;44.80;;;;;;5093155;28;19921;-67
2022/01/14 11:34:44;;;;;;;;;;;12.20;45.10;;;;;;5076293;28;19917;-68
2022/01/14 11:37:17;;;;;;;;;;;12.30;45.20;;;;;;5076171;28;20041;-69
2022/01/14 11:40:18;;;;;;;;;;;12.30;45.30;;;;;;5094648;28;19912;-67
2022/01/14 11:42:45;;;;;;;;;;;12.40;45.20;;;;;;5041366;28;19913;-69
2022/01/14 11:45:11;;;;;;;;;;;12.40;45.00;;;;;;5081288;28;19915;-68
2022/01/14 11:47:40;;;;;;;;;;;12.40;44.50;;;;;;5096393;28;20374;-68
2022/01/14 11:50:07;;;;;;;;;;;12.50;44.30;;;;;;5094899;28;19908;-64
2022/01/14 11:52:34;;;;;;;;;;;12.50;44.60;;;;;;5077170;28;19920;-65
2022/01/14 11:54:59;;;;;;;;;;;12.50;45.10;;;;;;5075248;28;19913;-75
2022/01/14 11:57:42;;;;;;;;;;;12.50;45.30;;;;;;5076197;28;19919;-72
2022/01/14 12:00:37;;;;;;;;;;;12.40;45.10;;;;;;5076293;28;19924;-63
2022/01/14 12:03:06;;;;;;;;;;;12.20;45.90;;;;;;5074948;28;19952;-69
2022/01/14 12:05:32;;;;;;;;;;;11.70;47.20;;;;;;5076212;28;19912;-69
2022/01/14 12:08:11;;;;;;;;;;;11.80;47.70;;;;;;5076318;28;19909;-67
2022/01/14 12:10:41;;;;;;;;;;;11.90;47.50;;;;;;5075842;28;19909;-70
2022/01/14 12:13:22;;;;;;;;;;;11.90;47.30;;;;;;5076274;28;19913;-63
2022/01/14 12:15:56;;;;;;;;;;;11.80;47.90;;;;;;5075835;28;19912;-67
2022/01/14 12:18:40;;;;;;;;;;;11.90;48.10;;;;;;5076138;28;19909;-68
2022/01/14 12:21:05;;;;;;;;;;;12.10;47.90;;;;;;5075814;28;19931;-63
2022/01/14 12:23:31;;;;;;;;;;;12.10;48.80;;;;;;5076262;28;19908;-63
2022/01/14 12:26:11;;;;;;;;;;;12.20;48.00;;;;;;5075652;28;19909;-63
2022/01/14 12:28:36;;;;;;;;;;;12.30;48.20;;;;;;5074562;28;20319;-61
2022/01/14 12:31:03;;;;;;;;;;;12.20;47.70;;;;;;5075413;28;19920;-66
2022/01/14 12:33:49;;;;;;;;;;;12.20;47.30;;;;;;5075688;28;19920;-65
2022/01/14 12:36:19;;;;;;;;;;;12.00;46.70;;;;;;5075581;28;19909;-64
2022/01/14 12:38:45;;;;;;;;;;;11.80;47.70;;;;;;5075310;28;19909;-66
2022/01/14 12:41:17;;;;;;;;;;;11.90;48.20;;;;;;5075344;28;19908;-67
2022/01/14 12:43:53;;;;;;;;;;;12.00;47.60;;;;;;5075562;28;19909;-67
2022/01/14 12:46:40;;;;;;;;;;;12.00;46.90;;;;;;5075128;28;19912;-68
2022/01/14 12:49:14;;;;;;;;;;;12.00;47.00;;;;;;5075282;28;20388;-70
2022/01/14 12:51:40;;;;;;;;;;;12.10;46.80;;;;;;5075059;28;19909;-65
2022/01/14 12:54:08;;;;;;;;;;;12.10;46.90;;;;;;5075182;28;19921;-66
2022/01/14 12:56:36;;;;;;;;;;;11.90;47.10;;;;;;5075054;28;19934;-64
2022/01/14 12:59:05;;;;;;;;;;;11.80;47.90;;;;;;5075153;28;19917;-67
2022/01/14 13:01:41;;;;;;;;;;;11.60;49.40;;;;;;5074953;28;19956;-63
2022/01/14 13:04:08;;;;;;;;;;;11.50;49.90;;;;;;5075280;28;19912;-66
2022/01/14 13:06:54;;;;;;;;;;;11.50;50.10;;;;;;5085589;28;20029;-67
2022/01/14 13:09:22;;;;;;;;;;;11.50;49.80;;;;;;5087991;28;19908;-64
2022/01/14 13:11:59;;;;;;;;;;;11.50;49.80;;;;;;5075203;28;19912;-63
2022/01/14 13:14:26;;;;;;;;;;;11.50;50.00;;;;;;5075154;28;19924;-64
2022/01/14 13:16:52;;;;;;;;;;;11.50;49.70;;;;;;5075427;28;20344;-64
2022/01/14 13:19:34;;;;;;;;;;;11.60;49.70;;;;;;5080700;28;19915;-63
2022/01/14 13:22:01;;;;;;;;;;;11.50;49.80;;;;;;5089786;28;20447;-63
2022/01/14 13:24:28;;;;;;;;;;;11.50;50.00;;;;;;5090060;28;19919;-67
2022/01/14 13:27:14;;;;;;;;;;;11.50;50.40;;;;;;5084288;28;19934;-64
2022/01/14 13:29:46;;;;;;;;;;;11.50;50.40;;;;;;5087986;28;19919;-62
2022/01/14 13:32:14;;;;;;;;;;;11.40;51.00;;;;;;5075491;28;19928;-68
2022/01/14 13:34:43;;;;;;;;;;;11.30;51.20;;;;;;5074888;28;19957;-64
2022/01/14 13:37:09;;;;;;;;;;;11.20;51.50;;;;;;5074341;28;19934;-71
2022/01/14 13:39:34;;;;;;;;;;;11.10;52.20;;;;;;5072913;28;20252;-70
2022/01/14 13:42:00;;;;;;;;;;;11.00;52.60;;;;;;5056388;28;20003;-71
2022/01/14 13:44:32;;;;;;;;;;;10.90;53.20;;;;;;5080614;28;19988;-70
2022/01/14 13:47:01;;;;;;;;;;;10.60;53.90;;;;;;5080410;28;19915;-71
2022/01/14 13:49:27;;;;;;;;;;;10.60;54.60;;;;;;5079229;28;19913;-70
2022/01/14 13:52:07;;;;;;;;;;;10.60;55.80;;;;;;5074202;28;19957;-64
2022/01/14 13:54:33;;;;;;;;;;;11.00;57.10;;;;;;5073917;28;20431;-65
2022/01/14 13:57:08;;;;;;;;;;;11.10;56.50;;;;;;5074268;28;19961;-66
2022/01/14 13:59:34;;;;;;;;;;;11.30;56.80;;;;;;5074076;28;19909;-63
2022/01/14 14:02:00;;;;;;;;;;;11.20;56.60;;;;;;5073949;28;20249;-67
2022/01/14 14:04:28;;;;;;;;;;;10.80;57.50;;;;;;5074452;28;19965;-69
2022/01/14 14:07:07;;;;;;;;;;;10.60;58.70;;;;;;5077691;28;19962;-67
2022/01/14 14:09:42;;;;;;;;;;;10.40;59.50;;;;;;5077340;28;19919;-64
2022/01/14 14:12:38;;;;;;;;;;;10.20;59.80;;;;;;5075638;28;19908;-64
2022/01/14 14:18:04;;;;;;;;;;;9.70;61.90;;;;;;5078742;28;19966;-62
2022/01/14 14:20:29;;;;;;;;;;;9.80;63.40;;;;;;5078991;28;19908;-62
2022/01/14 14:22:55;;;;;;;;;;;9.70;62.80;;;;;;5073175;28;19919;-65
2022/01/14 14:25:26;;;;;;;;;;;9.70;65.10;;;;;;5074273;28;19966;-65
2022/01/14 14:28:05;;;;;;;;;;;9.70;64.20;;;;;;5081253;28;19913;-65
2022/01/14 14:30:43;;;;;;;;;;;9.80;64.40;;;;;;5091932;28;20423;-66
2022/01/14 14:33:09;;;;;;;;;;;9.80;64.50;;;;;;5073091;28;20007;-63
2022/01/14 14:35:35;;;;;;;;;;;9.80;64.80;;;;;;5073126;28;20355;-63
2022/01/14 14:38:02;;;;;;;;;;;9.70;65.10;;;;;;5073190;28;20314;-66
2022/01/14 14:40:31;;;;;;;;;;;9.60;65.50;;;;;;5075381;28;19909;-66
2022/01/14 14:42:59;;;;;;;;;;;9.40;65.80;;;;;;5076350;28;19915;-63
2022/01/14 14:45:24;;;;;;;;;;;9.40;66.40;;;;;;5078161;28;20037;-62
2022/01/14 14:47:50;;;;;;;;;;;9.30;67.00;;;;;;5077374;28;19948;-64
2022/01/14 14:50:17;;;;;;;;;;;9.20;67.40;;;;;;5072540;28;20338;-64
2022/01/14 14:52:42;;;;;;;;;;;9.20;67.60;;;;;;5072832;28;19962;-65
2022/01/14 14:55:11;;;;;;;;;;;9.10;67.50;;;;;;5087757;28;19912;-65
2022/01/14 14:57:38;;;;;;;;;;;9.10;68.30;;;;;;5092827;28;19940;-66
2022/01/14 15:00:04;;;;;;;;;;;9.00;67.50;;;;;;5085749;28;19954;-71